createdAt,value
2018-08-20T00:02:55.101Z,22.76
2018-08-20T00:05:58.867Z,22.79
2018-08-20T00:09:02.830Z,22.72
2018-08-20T00:12:07.671Z,22.88
2018-08-20T00:15:11.295Z,22.73
2018-08-20T00:18:18.987Z,22.77
2018-08-20T00:21:22.540Z,22.86
2018-08-20T00:24:26.104Z,22.86
2018-08-20T00:27:31.557Z,23.02
2018-08-20T00:30:35.196Z,23.16
2018-08-20T00:33:38.713Z,23.17
2018-08-20T00:36:43.810Z,23.08
2018-08-20T00:39:47.328Z,23.12
2018-08-20T00:42:50.898Z,23.09
2018-08-20T00:45:54.400Z,23.06
2018-08-20T00:48:58.986Z,23.23
2018-08-20T00:52:02.529Z,23.29
2018-08-20T00:55:07.500Z,23.23
2018-08-20T00:58:10.977Z,23.20
2018-08-20T01:01:14.493Z,23.19
2018-08-20T01:04:17.970Z,23.15
2018-08-20T01:07:21.479Z,23.21
2018-08-20T01:10:24.964Z,23.20
2018-08-20T01:13:29.416Z,23.19
2018-08-20T01:16:32.922Z,23.23
2018-08-20T01:19:36.444Z,23.13
2018-08-20T01:22:39.955Z,23.10
2018-08-20T01:25:43.447Z,23.16
2018-08-20T01:28:46.999Z,23.10
2018-08-20T01:31:50.484Z,22.96
2018-08-20T01:34:53.959Z,22.76
2018-08-20T01:37:57.436Z,22.74
2018-08-20T01:41:00.921Z,22.70
2018-08-20T01:44:04.408Z,22.98
2018-08-20T01:47:07.900Z,22.85
2018-08-20T01:50:11.408Z,23.02
2018-08-20T01:53:14.967Z,23.15
2018-08-20T01:56:18.481Z,22.92
2018-08-20T01:59:22.986Z,22.81
2018-08-20T02:02:26.619Z,23.01
2018-08-20T02:05:30.220Z,22.73
2018-08-20T02:08:33.769Z,23.04
2018-08-20T02:11:37.324Z,23.12
2018-08-20T02:14:40.819Z,22.35
2018-08-20T02:17:45.273Z,22.62
2018-08-20T02:20:48.768Z,22.66
2018-08-20T02:23:52.240Z,21.81
2018-08-20T02:26:56.028Z,22.17
2018-08-20T02:29:59.491Z,22.15
2018-08-20T02:33:03.020Z,22.30
2018-08-20T02:36:06.505Z,21.93
2018-08-20T02:39:11.952Z,21.93
2018-08-20T02:42:15.543Z,22.14
2018-08-20T02:45:19.616Z,22.17
2018-08-20T02:48:24.266Z,22.24
2018-08-20T02:51:27.793Z,22.26
2018-08-20T02:54:31.293Z,22.22
2018-08-20T02:57:34.922Z,22.07
2018-08-20T03:00:39.456Z,21.78
2018-08-20T03:03:43.051Z,21.83
2018-08-20T03:06:46.566Z,21.95
2018-08-20T03:09:52.360Z,22.06
2018-08-20T03:12:55.896Z,21.65
2018-08-20T03:16:00.564Z,21.78
2018-08-20T03:19:04.373Z,21.99
2018-08-20T03:22:07.956Z,22.16
2018-08-20T03:25:11.594Z,21.65
2018-08-20T03:28:15.368Z,21.96
2018-08-20T03:31:18.968Z,21.94
2018-08-20T03:34:24.513Z,21.63
2018-08-20T03:37:28.113Z,21.78
2018-08-20T03:40:31.732Z,21.87
2018-08-20T03:43:35.372Z,21.86
2018-08-20T03:46:39.851Z,21.84
2018-08-20T03:49:43.460Z,21.68
2018-08-20T03:52:47.250Z,21.84
2018-08-20T03:55:50.960Z,21.69
2018-08-20T03:58:54.580Z,21.89
2018-08-20T04:01:58.689Z,21.89
2018-08-20T04:05:02.405Z,21.94
2018-08-20T04:08:06.143Z,21.88
2018-08-20T04:11:09.974Z,21.86
2018-08-20T04:14:14.810Z,21.95
2018-08-20T04:17:25.512Z,21.74
2018-08-20T04:20:35.020Z,21.78
2018-08-20T04:23:38.556Z,21.83
2018-08-20T04:26:42.157Z,21.99
2018-08-20T04:29:45.826Z,22.01
2018-08-20T04:32:49.478Z,21.79
2018-08-20T04:35:53.147Z,21.83
2018-08-20T04:38:56.776Z,21.80
2018-08-20T04:42:03.331Z,21.47
2018-08-20T04:45:08.463Z,21.55
2018-08-20T04:48:14.103Z,21.22
2018-08-20T04:51:20.750Z,21.35
2018-08-20T04:54:27.189Z,21.44
2018-08-20T04:57:35.972Z,21.46
2018-08-20T05:00:40.969Z,21.40
2018-08-20T05:03:49.205Z,21.41
2018-08-20T05:06:54.848Z,21.44
2018-08-20T05:09:58.614Z,21.28
2018-08-20T05:13:02.773Z,21.28
2018-08-20T05:16:06.402Z,21.35
2018-08-20T05:19:10.957Z,21.24
2018-08-20T05:22:14.941Z,21.43
2018-08-20T05:25:18.647Z,21.14
2018-08-20T05:28:22.534Z,21.10
2018-08-20T05:31:29.098Z,21.27
2018-08-20T05:34:32.700Z,21.24
2018-08-20T05:37:36.411Z,21.29
2018-08-20T05:40:41.103Z,21.27
2018-08-20T05:43:47.173Z,21.28
2018-08-20T05:46:52.643Z,21.38
2018-08-20T05:49:56.761Z,21.27
2018-08-20T05:53:00.928Z,21.28
2018-08-20T05:56:05.730Z,21.37
2018-08-20T05:59:09.695Z,21.35
2018-08-20T06:02:14.518Z,21.42
2018-08-20T06:05:19.140Z,21.49
2018-08-20T06:08:25.808Z,21.55
2018-08-20T06:11:30.024Z,21.65
2018-08-20T06:14:35.332Z,21.73
2018-08-20T06:17:40.327Z,21.79
2018-08-20T06:20:46.181Z,21.79
2018-08-20T06:23:51.943Z,21.90
2018-08-20T06:26:56.635Z,21.93
2018-08-20T06:30:01.367Z,22.00
2018-08-20T06:33:05.169Z,22.02
2018-08-20T06:36:09.120Z,22.06
2018-08-20T06:39:13.743Z,22.08
2018-08-20T06:42:20.854Z,22.15
2018-08-20T06:45:25.355Z,22.19
2018-08-20T06:48:29.691Z,22.30
2018-08-20T06:51:33.537Z,22.34
2018-08-20T06:54:37.324Z,22.47
2018-08-20T06:57:41.116Z,22.63
2018-08-20T07:00:45.263Z,22.64
2018-08-20T07:03:49.002Z,22.69
2018-08-20T07:06:53.069Z,22.73
2018-08-20T07:09:56.957Z,22.76
2018-08-20T07:13:11.827Z,22.81
2018-08-20T07:16:15.642Z,22.88
2018-08-20T07:19:20.444Z,22.91
2018-08-20T07:22:25.425Z,23.06
2018-08-20T07:25:29.219Z,23.16
2018-08-20T07:28:32.934Z,23.13
2018-08-20T07:31:37.339Z,23.22
2018-08-20T07:34:43.105Z,23.26
2018-08-20T07:37:47.525Z,23.30
2018-08-20T07:40:53.089Z,23.26
2018-08-20T07:43:58.661Z,23.29
2018-08-20T07:47:02.397Z,23.37
2018-08-20T07:50:06.688Z,23.35
2018-08-20T07:53:11.487Z,23.36
2018-08-20T07:56:16.471Z,23.38
2018-08-20T07:59:20.324Z,23.42
2018-08-20T08:02:24.004Z,23.29
2018-08-20T08:05:27.831Z,23.35
2018-08-20T08:08:33.782Z,23.41
2018-08-20T08:11:38.357Z,23.50
2018-08-20T08:14:43.481Z,23.52
2018-08-20T08:17:48.207Z,23.48
2018-08-20T08:20:52.311Z,23.45
2018-08-20T08:23:58.875Z,23.36
2018-08-20T08:27:04.522Z,23.38
2018-08-20T08:30:28.441Z,23.36
2018-08-20T08:33:36.463Z,23.42
2018-08-20T08:40:02.728Z,23.40
2018-08-20T08:46:30.786Z,23.41
2018-08-20T08:49:34.712Z,23.35
2018-08-20T08:52:38.408Z,23.39
2018-08-20T08:55:42.183Z,23.35
2018-08-20T08:58:45.994Z,23.24
2018-08-20T09:01:50.980Z,23.33
2018-08-20T09:04:54.901Z,23.29
2018-08-20T09:07:59.007Z,23.27
2018-08-20T09:11:02.746Z,23.31
2018-08-20T09:14:06.447Z,23.44
2018-08-20T09:17:10.474Z,23.45
2018-08-20T09:20:15.690Z,23.38
2018-08-20T09:23:19.691Z,23.43
2018-08-20T09:26:24.665Z,23.46
2018-08-20T09:29:29.717Z,23.46
2018-08-20T09:32:33.507Z,23.53
2018-08-20T09:35:38.189Z,23.55
2018-08-20T09:38:44.266Z,23.53
2018-08-20T09:41:49.357Z,23.66
2018-08-20T09:44:54.317Z,23.66
2018-08-20T09:47:59.364Z,23.64
2018-08-20T09:51:04.781Z,23.71
2018-08-20T09:54:08.933Z,23.71
2018-08-20T09:57:13.773Z,23.83
2018-08-20T10:00:23.638Z,23.85
2018-08-20T10:03:28.206Z,23.89
2018-08-20T10:06:33.778Z,23.85
2018-08-20T10:09:39.453Z,23.79
2018-08-20T10:12:44.701Z,23.89
2018-08-20T10:15:49.788Z,23.81
2018-08-20T10:18:54.958Z,23.74
2018-08-20T10:22:00.774Z,23.55
2018-08-20T10:25:06.749Z,23.46
2018-08-20T10:28:10.640Z,23.48
2018-08-20T10:31:16.503Z,23.42
2018-08-20T10:34:20.307Z,23.43
2018-08-20T10:37:24.199Z,23.59
2018-08-20T10:40:28.120Z,23.50
2018-08-20T10:43:33.629Z,23.53
2018-08-20T10:46:37.625Z,23.58
2018-08-20T10:49:42.097Z,23.60
2018-08-20T10:52:48.999Z,23.54
2018-08-20T10:55:53.107Z,23.68
2018-08-20T10:58:57.874Z,23.72
2018-08-20T11:02:02.064Z,23.70
2018-08-20T11:05:06.934Z,23.77
2018-08-20T11:08:10.882Z,23.90
2018-08-20T11:11:14.968Z,24.03
2018-08-20T11:14:19.020Z,24.32
2018-08-20T11:17:24.583Z,24.52
2018-08-20T11:20:29.824Z,24.62
2018-08-20T11:23:36.249Z,24.69
2018-08-20T11:26:40.058Z,24.59
2018-08-20T11:29:43.688Z,24.40
2018-08-20T11:32:47.718Z,24.40
2018-08-20T11:35:52.697Z,24.37
2018-08-20T11:38:56.443Z,24.43
2018-08-20T11:42:01.032Z,24.29
2018-08-20T11:45:05.049Z,24.23
2018-08-20T11:48:16.178Z,24.26
2018-08-20T11:51:19.994Z,24.17
2018-08-20T11:54:24.080Z,24.25
2018-08-20T11:57:28.143Z,24.30
2018-08-20T12:00:32.003Z,24.27
2018-08-20T12:03:36.392Z,24.24
2018-08-20T12:06:40.891Z,24.21
2018-08-20T12:09:44.786Z,24.17
2018-08-20T12:12:48.593Z,24.09
2018-08-20T12:15:52.591Z,24.03
2018-08-20T12:18:58.044Z,23.98
2018-08-20T12:22:01.895Z,23.99
2018-08-20T12:25:06.627Z,23.93
2018-08-20T12:28:10.389Z,23.92
2018-08-20T12:31:14.216Z,23.88
2018-08-20T12:34:18.226Z,23.87
2018-08-20T12:37:23.011Z,23.79
2018-08-20T12:40:26.986Z,23.78
2018-08-20T12:43:30.699Z,23.75
2018-08-20T12:46:35.769Z,23.83
2018-08-20T12:49:40.631Z,23.83
2018-08-20T12:52:45.207Z,23.80
2018-08-20T12:55:50.962Z,23.91
2018-08-20T12:58:55.880Z,23.91
2018-08-20T13:01:59.687Z,23.98
2018-08-20T13:05:03.606Z,24.05
2018-08-20T13:08:08.043Z,24.04
2018-08-20T13:11:11.936Z,23.98
2018-08-20T13:14:15.844Z,24.02
2018-08-20T13:17:19.701Z,24.04
2018-08-20T13:20:23.584Z,24.07
2018-08-20T13:23:28.491Z,24.05
2018-08-20T13:26:32.424Z,24.08
2018-08-20T13:29:37.250Z,24.13
2018-08-20T13:32:43.040Z,24.19
2018-08-20T13:35:48.113Z,24.27
2018-08-20T13:38:52.097Z,24.25
2018-08-20T13:41:56.284Z,24.25
2018-08-20T13:45:00.378Z,24.21
2018-08-20T13:48:05.360Z,24.25
2018-08-20T13:51:11.158Z,24.30
2018-08-20T13:54:14.927Z,24.31
2018-08-20T13:57:20.128Z,24.31
2018-08-20T14:00:24.968Z,24.31
2018-08-20T14:03:29.871Z,24.39
2018-08-20T14:06:34.240Z,24.41
2018-08-20T14:09:39.220Z,24.44
2018-08-20T14:12:43.984Z,24.40
2018-08-20T14:15:47.839Z,24.38
2018-08-20T14:18:52.960Z,24.28
2018-08-20T14:21:57.334Z,24.35
2018-08-20T14:25:01.258Z,24.49
2018-08-20T14:28:07.010Z,24.47
2018-08-20T14:31:10.863Z,24.71
2018-08-20T14:34:14.970Z,24.82
2018-08-20T14:37:18.729Z,24.92
2018-08-20T14:40:24.995Z,24.87
2018-08-20T14:43:29.219Z,24.79
2018-08-20T14:46:33.027Z,24.85
2018-08-20T14:49:36.978Z,24.74
2018-08-20T14:52:41.265Z,24.61
2018-08-20T14:59:22.920Z,24.85
2018-08-20T15:02:26.927Z,24.84
2018-08-20T15:05:30.766Z,24.66
2018-08-20T15:08:39.632Z,24.67
2018-08-20T15:11:43.661Z,24.61
2018-08-20T15:14:47.722Z,24.52
2018-08-20T15:17:53.846Z,24.51
2018-08-20T15:20:58.822Z,24.43
2018-08-20T15:24:02.580Z,24.39
2018-08-20T15:27:07.474Z,24.35
2018-08-20T15:30:12.238Z,24.33
2018-08-20T15:33:17.309Z,24.27
2018-08-20T15:36:21.275Z,24.11
2018-08-20T15:39:26.949Z,24.01
2018-08-20T15:42:32.807Z,24.03
2018-08-20T15:45:38.449Z,24.01
2018-08-20T15:48:42.368Z,23.99
2018-08-20T15:51:46.141Z,23.90
2018-08-20T15:54:51.052Z,23.93
2018-08-20T15:57:55.885Z,23.91
2018-08-20T16:01:01.200Z,23.86
2018-08-20T16:04:05.569Z,23.92
2018-08-20T16:07:09.379Z,23.85
2018-08-20T16:10:13.450Z,23.83
2018-08-20T16:13:17.482Z,23.82
2018-08-20T16:16:21.986Z,23.80
2018-08-20T16:19:25.868Z,23.70
2018-08-20T16:22:32.105Z,23.69
2018-08-20T16:25:36.318Z,23.68
2018-08-20T16:28:40.161Z,23.70
2018-08-20T16:31:44.186Z,23.70
2018-08-20T16:34:49.183Z,23.62
2018-08-20T16:37:53.212Z,23.68
2018-08-20T16:40:57.456Z,23.70
2018-08-20T16:44:01.739Z,23.69
2018-08-20T16:47:07.093Z,23.66
2018-08-20T16:50:12.590Z,23.62
2018-08-20T16:53:16.810Z,23.61
2018-08-20T16:56:23.185Z,23.61
2018-08-20T16:59:28.197Z,23.57
2018-08-20T17:02:32.267Z,23.57
2018-08-20T17:05:44.179Z,23.58
2018-08-20T17:08:48.245Z,23.55
2018-08-20T17:11:52.206Z,23.59
2018-08-20T17:14:57.183Z,23.56
2018-08-20T17:18:01.926Z,23.47
2018-08-20T17:21:05.971Z,23.52
2018-08-20T17:24:09.947Z,23.51
2018-08-20T17:27:16.757Z,23.52
2018-08-20T17:30:24.739Z,23.53
2018-08-20T17:33:32.261Z,23.57
2018-08-20T17:36:40.866Z,23.53
2018-08-20T17:39:57.159Z,23.41
2018-08-20T17:43:01.349Z,23.49
2018-08-20T17:46:05.627Z,23.45
2018-08-20T17:49:20.684Z,23.50
2018-08-20T17:52:36.366Z,23.43
2018-08-20T17:55:42.037Z,23.35
2018-08-20T17:58:59.444Z,23.40
2018-08-20T18:02:04.168Z,23.45
2018-08-20T18:05:09.373Z,23.40
2018-08-20T18:08:13.400Z,23.28
2018-08-20T18:11:19.472Z,23.26
2018-08-20T18:14:25.858Z,23.24
2018-08-20T18:17:30.427Z,23.22
2018-08-20T18:20:40.126Z,23.23
2018-08-20T18:23:45.102Z,23.17
2018-08-20T18:26:53.487Z,23.15
2018-08-20T18:30:01.809Z,23.12
2018-08-20T18:33:15.543Z,23.12
2018-08-20T18:36:20.673Z,22.96
2018-08-20T18:39:24.481Z,23.05
2018-08-20T18:42:38.814Z,23.10
2018-08-20T19:00:26.685Z,23.06
2018-08-20T19:04:09.029Z,23.04
2018-08-20T19:29:30.671Z,22.99
2018-08-20T19:32:51.216Z,22.97
2018-08-20T20:01:46.032Z,22.88
2018-08-20T20:04:49.785Z,22.89
2018-08-20T20:08:02.582Z,22.89
2018-08-20T20:11:14.391Z,22.91
2018-08-20T20:14:18.148Z,22.84
2018-08-20T20:17:23.660Z,22.79
2018-08-20T20:20:27.212Z,22.84
2018-08-20T20:23:30.827Z,22.77
2018-08-20T20:26:34.515Z,22.72
2018-08-20T20:29:38.233Z,22.69
2018-08-20T20:32:41.831Z,22.66
2018-08-20T20:35:45.423Z,22.70
2018-08-20T20:38:49.007Z,22.66
2018-08-20T20:41:52.509Z,22.68
2018-08-20T20:44:56.302Z,22.53
2018-08-20T20:47:59.811Z,22.44
2018-08-20T20:51:03.922Z,22.43
2018-08-20T20:54:07.526Z,22.41
2018-08-20T20:57:11.024Z,22.34
2018-08-20T21:00:14.674Z,22.38
2018-08-20T21:03:18.205Z,22.32
2018-08-20T21:06:21.548Z,22.26
2018-08-20T21:09:25.615Z,22.18
2018-08-20T21:12:38.722Z,22.24
2018-08-20T21:15:42.507Z,22.24
2018-08-20T21:30:57.386Z,21.93
2018-08-20T22:52:04.399Z,21.31
2018-08-20T22:55:24.791Z,21.15
2018-08-20T23:02:14.447Z,21.27
2018-08-20T23:05:50.129Z,21.23
2018-08-20T23:10:09.975Z,21.14
2018-08-20T23:28:08.410Z,20.86
2018-08-20T23:31:20.317Z,20.57
2018-08-20T23:34:33.734Z,20.41
2018-08-20T23:37:49.847Z,20.20
2018-08-20T23:41:18.682Z,20.21
2018-08-20T23:44:27.840Z,20.14
2018-08-20T23:47:39.698Z,20.09
2018-08-20T23:51:05.420Z,20.21
2018-08-20T23:54:17.391Z,20.31
2018-08-20T23:57:33.781Z,20.29
